Time;durP1;ratioP1;P1;durP2;ratioP2;P2;SDS_P1;SDS_P2;PMS_P1;PMS_P2;Temp;Humidity;BMP_temperature;BMP_pressure;BME280_temperature;BME280_humidity;BME280_pressure;Samples;Min_cycle;Max_cycle;Signal;HPM_P1;HPM_P2
2022/05/07 00:01:54;;;;;;;37.90;25.77;;;11.70;99.90;;;;;;5115358;28;20075;-87
2022/05/07 00:04:25;;;;;;;35.30;24.15;;;11.70;99.90;;;;;;5111759;28;20071;-87
2022/05/07 00:06:51;;;;;;;38.80;26.40;;;11.80;99.90;;;;;;5094395;28;20083;-87
2022/05/07 00:09:18;;;;;;;34.13;23.63;;;11.70;99.90;;;;;;5093868;28;20533;-87
2022/05/07 00:11:57;;;;;;;;;;;;;;;;;;;;;
2022/05/07 00:14:35;;;;;;;33.60;25.65;;;11.70;99.90;;;;;;5093075;28;20044;-87
2022/05/07 00:20:15;;;;;;;31.95;22.17;;;11.80;99.90;;;;;;5092879;28;20053;-87
2022/05/07 00:22:41;;;;;;;31.95;23.67;;;11.70;99.90;;;;;;5087711;28;20455;-87
2022/05/07 00:25:10;;;;;;;35.75;25.00;;;11.80;99.90;;;;;;5093444;28;20097;-88
2022/05/07 00:27:37;;;;;;;36.65;24.58;;;11.70;99.90;;;;;;5093184;28;20036;-87
2022/05/07 00:30:08;;;;;;;36.47;23.48;;;11.70;99.90;;;;;;5094471;28;20043;-87
2022/05/07 00:32:45;;;;;;;39.20;26.35;;;11.80;99.90;;;;;;5094868;28;20075;-87
2022/05/07 00:35:11;;;;;;;31.42;24.23;;;11.80;99.90;;;;;;5093462;28;20040;-87
2022/05/07 00:37:38;;;;;;;31.80;23.45;;;11.70;99.90;;;;;;5084608;28;20047;-87
2022/05/07 00:40:05;;;;;;;43.85;29.23;;;11.70;99.90;;;;;;5114534;28;20079;-87
2022/05/07 00:42:31;;;;;;;39.30;28.85;;;11.70;99.90;;;;;;5105892;28;20044;-87
2022/05/07 00:45:02;;;;;;;40.95;28.67;;;11.80;99.90;;;;;;5094050;28;20067;-87
2022/05/07 00:47:34;;;;;;;43.50;29.92;;;11.80;99.90;;;;;;5076178;28;20051;-87
2022/05/07 00:52:46;;;;;;;49.55;31.35;;;11.80;99.90;;;;;;5093764;28;20048;-87
2022/05/07 00:55:18;;;;;;;43.05;29.55;;;11.70;99.90;;;;;;5092878;28;20056;-87
2022/05/07 00:57:44;;;;;;;45.08;31.35;;;12.00;99.90;;;;;;5109347;28;20036;-87
2022/05/07 01:00:13;;;;;;;45.33;30.13;;;11.80;99.90;;;;;;5092633;28;20052;-87
2022/05/07 01:02:43;;;;;;;40.95;29.27;;;11.80;99.90;;;;;;5091722;28;20080;-87
2022/05/07 01:05:13;;;;;;;40.90;30.77;;;11.80;99.90;;;;;;5109538;28;20048;-87
2022/05/07 01:07:45;;;;;;;44.78;32.20;;;11.80;99.90;;;;;;5092807;28;20123;-87
2022/05/07 01:10:13;;;;;;;43.80;31.58;;;11.80;99.90;;;;;;5093358;28;20105;-86
2022/05/07 01:12:42;;;;;;;48.13;32.47;;;11.80;99.90;;;;;;5080408;28;20046;-86
2022/05/07 01:15:20;;;;;;;43.80;31.00;;;11.80;99.90;;;;;;5095332;28;20050;-87
2022/05/07 01:17:49;;;;;;;40.53;30.42;;;11.80;99.90;;;;;;5105259;28;20471;-86
2022/05/07 01:20:15;;;;;;;43.50;32.45;;;11.80;99.90;;;;;;5107683;28;20043;-87
2022/05/07 01:25:35;;;;;;;43.13;30.92;;;11.70;99.90;;;;;;5091859;28;20047;-87
2022/05/07 01:28:04;;;;;;;;;;;11.90;99.90;;;;;;5094393;28;20097;-87
2022/05/07 01:30:40;;;;;;;47.85;31.08;;;11.80;99.90;;;;;;5091218;28;19920;-87
2022/05/07 01:33:12;;;;;;;42.80;32.13;;;11.80;99.90;;;;;;5093000;28;20134;-88
2022/05/07 01:35:37;;;;;;;52.55;33.00;;;11.80;99.90;;;;;;5092370;28;20040;-87
2022/05/07 01:38:11;;;;;;;44.20;32.17;;;11.80;99.90;;;;;;5091961;28;20441;-87
2022/05/07 01:40:37;;;;;;;41.77;29.83;;;11.90;99.90;;;;;;5076045;28;20145;-87
2022/05/07 01:43:38;;;;;;;38.78;29.65;;;11.80;99.90;;;;;;5092533;28;20322;-87
2022/05/07 01:48:09;;;;;;;46.80;32.22;;;11.90;99.90;;;;;;5092564;28;20040;-87
2022/05/07 01:48:59;;;;;;;44.13;33.53;;;11.80;99.90;;;;;;5103767;28;20071;-88
2022/05/07 01:51:31;;;;;;;46.78;34.60;;;11.80;99.90;;;;;;5110309;28;20047;-87
2022/05/07 01:53:57;;;;;;;43.33;31.85;;;11.90;99.90;;;;;;5097926;28;20059;-88
2022/05/07 01:56:23;;;;;;;42.67;30.55;;;11.80;99.90;;;;;;5091949;28;20044;-88
2022/05/07 01:58:49;;;;;;;39.30;29.55;;;11.80;99.90;;;;;;5092704;28;20065;-87
2022/05/07 02:01:57;;;;;;;39.97;31.20;;;11.80;99.90;;;;;;5093161;28;20044;-87
2022/05/07 02:04:23;;;;;;;40.20;30.08;;;11.90;99.90;;;;;;5069690;28;20123;-88
2022/05/07 02:06:48;;;;;;;42.33;29.30;;;11.90;99.90;;;;;;5091917;28;20100;-87
2022/05/07 02:09:14;;;;;;;44.47;32.00;;;11.70;99.90;;;;;;5092910;28;20044;-87
2022/05/07 02:11:40;;;;;;;40.35;29.58;;;11.80;99.90;;;;;;5092504;28;20141;-87
2022/05/07 02:14:06;;;;;;;41.50;30.63;;;11.80;99.90;;;;;;5074239;28;20124;-88
2022/05/07 02:16:32;;;;;;;40.88;30.95;;;11.70;99.90;;;;;;5092655;28;20513;-88
2022/05/07 02:19:07;;;;;;;42.00;30.50;;;11.80;99.90;;;;;;5077775;28;20050;-87
2022/05/07 02:21:32;;;;;;;;;;;11.80;99.90;;;;;;5097336;28;20380;-87
2022/05/07 02:24:04;;;;;;;35.22;27.30;;;11.00;99.90;;;;;;5096281;28;19945;-87
2022/05/07 02:26:30;;;;;;;35.30;28.25;;;11.70;99.90;;;;;;5094960;28;20121;-87
2022/05/07 02:29:04;;;;;;;42.03;30.73;;;11.70;99.90;;;;;;5097195;28;20483;-87
2022/05/07 02:32:13;;;;;;;35.93;28.60;;;11.70;99.90;;;;;;5095529;28;20552;-88
2022/05/07 02:34:40;;;;;;;34.03;27.30;;;11.40;99.90;;;;;;5091065;28;20339;-87
2022/05/07 02:37:11;;;;;;;43.75;31.48;;;11.60;99.90;;;;;;5079890;28;20055;-88
2022/05/07 02:39:38;;;;;;;44.47;30.30;;;11.70;99.90;;;;;;5099129;28;20039;-87
2022/05/07 02:44:56;;;;;;;34.88;27.52;;;11.50;99.90;;;;;;5094987;28;20442;-87
2022/05/07 02:47:39;;;;;;;38.67;27.98;;;11.50;99.90;;;;;;5077992;28;20562;-87
2022/05/07 02:50:23;;;;;;;31.80;26.52;;;11.50;99.90;;;;;;5094741;28;20052;-88
2022/05/07 02:52:52;;;;;;;29.75;25.50;;;11.50;99.90;;;;;;5101145;28;20039;-87
2022/05/07 02:55:21;;;;;;;32.75;25.15;;;11.50;99.90;;;;;;5097423;28;20051;-87
2022/05/07 02:57:53;;;;;;;30.98;25.40;;;11.50;99.90;;;;;;5110420;28;20056;-87
2022/05/07 03:00:19;;;;;;;33.13;25.65;;;10.70;99.90;;;;;;5078604;28;20136;-87
2022/05/07 03:02:45;;;;;;;33.30;24.40;;;11.40;99.90;;;;;;5095821;28;20539;-87
2022/05/07 03:08:04;;;;;;;25.52;21.98;;;11.50;99.90;;;;;;5095436;28;20179;-87
2022/05/07 03:10:41;;;;;;;26.92;22.27;;;11.50;99.90;;;;;;5094351;28;20077;-87
2022/05/07 03:13:07;;;;;;;29.27;22.95;;;11.60;99.90;;;;;;5078833;28;20483;-87
2022/05/07 03:15:33;;;;;;;29.10;22.58;;;11.50;99.90;;;;;;5077348;28;20047;-87
2022/05/07 03:18:12;;;;;;;25.95;22.40;;;11.50;99.90;;;;;;5096314;28;20541;-87
2022/05/07 03:20:45;;;;;;;25.10;22.40;;;11.60;99.90;;;;;;5077935;28;20133;-87
2022/05/07 03:23:18;;;;;;;28.83;22.42;;;11.50;99.90;;;;;;5095618;28;20106;-88
2022/05/07 03:25:52;;;;;;;27.88;23.45;;;11.60;99.90;;;;;;5094728;28;20032;-87
2022/05/07 03:28:18;;;;;;;26.70;22.42;;;11.50;99.90;;;;;;5078895;28;20139;-87
2022/05/07 03:30:49;;;;;;;27.33;23.48;;;11.50;99.90;;;;;;5093511;28;20479;-87
2022/05/07 03:33:21;;;;;;;29.30;23.20;;;11.50;99.90;;;;;;5078070;28;20046;-87
2022/05/07 03:35:47;;;;;;;26.52;22.33;;;11.50;99.90;;;;;;5094485;28;20438;-87
2022/05/07 03:38:13;;;;;;;24.38;20.92;;;12.60;99.90;;;;;;5093592;28;20079;-87
2022/05/07 03:41:06;;;;;;;21.95;19.65;;;11.50;99.90;;;;;;5093348;28;20047;-87
2022/05/07 03:43:37;;;;;;;25.10;22.03;;;11.50;99.90;;;;;;5076033;28;20055;-87
2022/05/07 03:46:12;;;;;;;24.05;21.30;;;11.50;99.90;;;;;;5075444;28;20131;-87
2022/05/07 03:48:38;;;;;;;25.80;20.50;;;11.60;99.90;;;;;;5076178;28;20044;-87
2022/05/07 03:51:04;;;;;;;22.98;20.50;;;11.50;99.90;;;;;;5092610;28;20047;-87
2022/05/07 03:53:30;;;;;;;24.70;20.45;;;11.50;99.90;;;;;;5095427;28;20166;-87
2022/05/07 03:56:10;;;;;;;28.17;20.85;;;11.60;99.90;;;;;;5093790;28;20509;-87
2022/05/07 03:58:36;;;;;;;26.20;21.60;;;11.30;99.90;;;;;;5075119;28;20055;-87
2022/05/07 04:01:03;;;;;;;24.38;19.83;;;11.50;99.90;;;;;;5092561;28;20051;-87
2022/05/07 04:03:30;;;;;;;24.15;21.02;;;11.50;99.90;;;;;;5093037;28;20043;-87
2022/05/07 04:05:59;;;;;;;28.45;22.80;;;11.50;99.90;;;;;;5074914;28;20060;-87
2022/05/07 04:08:25;;;;;;;28.15;22.30;;;11.50;99.90;;;;;;5059179;28;20044;-87
2022/05/07 04:10:51;;;;;;;26.08;22.45;;;11.50;99.90;;;;;;5075763;28;20058;-87
2022/05/07 04:13:35;;;;;;;27.98;23.40;;;11.50;99.90;;;;;;5091341;28;20040;-87
2022/05/07 04:16:01;;;;;;;27.25;22.83;;;11.50;99.90;;;;;;5075827;28;20129;-87
2022/05/07 04:18:27;;;;;;;25.65;22.35;;;11.50;99.90;;;;;;5094318;28;20052;-87
2022/05/07 04:21:01;;;;;;;34.42;24.00;;;11.50;99.90;;;;;;5093260;28;20418;-87
2022/05/07 04:23:33;;;;;;;24.65;21.88;;;11.50;99.90;;;;;;5094645;28;20052;-87
2022/05/07 04:25:59;;;;;;;28.83;22.60;;;12.20;99.90;;;;;;5076702;28;20040;-87
2022/05/07 04:29:03;;;;;;;28.52;23.77;;;12.80;99.90;;;;;;5095096;28;20114;-87
2022/05/07 04:31:29;;;;;;;42.15;25.42;;;11.10;99.90;;;;;;5034673;28;20138;-87
2022/05/07 04:34:00;;;;;;;27.02;23.15;;;11.50;99.90;;;;;;5034483;28;20563;-87
2022/05/07 04:36:26;;;;;;;30.05;24.88;;;11.60;99.90;;;;;;5034740;28;20049;-87
2022/05/07 04:38:52;;;;;;;27.88;23.92;;;11.60;99.90;;;;;;5035140;28;20403;-87
2022/05/07 04:41:36;;;;;;;26.98;22.35;;;11.60;99.90;;;;;;5051779;28;20051;-87
2022/05/07 04:44:08;;;;;;;29.67;24.58;;;10.80;99.90;;;;;;5076280;28;20044;-87
2022/05/07 04:46:43;;;;;;;27.27;21.90;;;11.50;99.90;;;;;;5076089;28;20052;-87
2022/05/07 04:49:14;;;;;;;;;;;11.60;99.90;;;;;;5093407;28;20123;-87
2022/05/07 04:51:39;;;;;;;26.00;21.65;;;10.80;99.90;;;;;;5093593;28;19920;-87
2022/05/07 04:54:07;;;;;;;30.13;22.80;;;11.60;99.90;;;;;;5091690;28;20060;-86
2022/05/07 04:56:43;;;;;;;;;;;;;;;;;;;;;
2022/05/07 04:59:20;;;;;;;;;;;11.60;99.90;;;;;;5092665;28;20105;-86
2022/05/07 05:01:46;;;;;;;25.63;21.27;;;11.30;99.90;;;;;;5093071;28;19920;-88
2022/05/07 05:04:25;;;;;;;24.63;22.00;;;11.70;99.90;;;;;;5076449;28;20176;-87
2022/05/07 05:06:50;;;;;;;25.55;22.70;;;11.80;99.90;;;;;;5093536;28;20100;-87
2022/05/07 05:09:16;;;;;;;29.20;22.35;;;11.80;99.90;;;;;;5093157;28;20052;-87
2022/05/07 05:11:42;;;;;;;25.83;22.83;;;11.90;99.90;;;;;;5093028;28;20557;-86
2022/05/07 05:16:55;;;;;;;27.33;22.35;;;11.90;99.90;;;;;;5092419;28;20047;-88
2022/05/07 05:19:21;;;;;;;26.83;21.95;;;11.90;99.90;;;;;;5093531;28;20109;-87
2022/05/07 05:21:47;;;;;;;26.77;22.63;;;12.00;99.90;;;;;;5092661;28;20388;-83
2022/05/07 05:24:13;;;;;;;26.00;23.35;;;12.00;99.90;;;;;;5094108;28;20075;-82
2022/05/07 05:26:39;;;;;;;28.27;21.90;;;12.10;99.90;;;;;;5111393;28;20071;-83
2022/05/07 05:29:05;;;;;;;28.20;23.10;;;12.10;99.90;;;;;;5113430;28;20043;-84
2022/05/07 05:31:30;;;;;;;28.88;23.90;;;12.10;99.90;;;;;;5113789;28;20122;-82
2022/05/07 05:33:57;;;;;;;30.15;23.73;;;12.20;99.90;;;;;;5121625;28;20043;-83
2022/05/07 05:36:32;;;;;;;24.88;22.23;;;12.20;99.90;;;;;;5127295;28;20047;-83
2022/05/07 05:38:58;;;;;;;27.02;24.13;;;12.20;99.90;;;;;;5112543;28;20127;-82
2022/05/07 05:41:24;;;;;;;28.77;23.10;;;12.30;99.90;;;;;;5113872;28;20123;-82
2022/05/07 05:43:50;;;;;;;30.58;22.00;;;12.30;99.90;;;;;;5107659;28;20119;-83
2022/05/07 05:46:16;;;;;;;30.45;23.52;;;12.30;99.90;;;;;;5092551;28;20450;-83
2022/05/07 05:48:41;;;;;;;32.53;25.40;;;12.30;99.90;;;;;;5093967;28;20126;-83
2022/05/07 05:51:07;;;;;;;32.67;24.02;;;12.30;99.90;;;;;;5092563;28;20044;-83
2022/05/07 05:53:33;;;;;;;26.00;23.20;;;12.40;99.90;;;;;;5093877;28;20072;-82
2022/05/07 05:56:00;;;;;;;28.02;22.58;;;12.40;99.90;;;;;;5103670;28;20051;-83
2022/05/07 05:58:33;;;;;;;28.90;23.30;;;12.40;99.90;;;;;;5117094;28;20398;-84
2022/05/07 06:00:59;;;;;;;25.52;22.60;;;12.50;99.90;;;;;;5117987;28;20035;-82
2022/05/07 06:03:25;;;;;;;30.92;24.95;;;12.50;99.90;;;;;;5117908;28;20119;-82
2022/05/07 06:05:52;;;;;;;29.67;23.88;;;12.50;99.90;;;;;;5116852;28;20114;-82
2022/05/07 06:08:17;;;;;;;27.73;22.15;;;12.60;99.90;;;;;;5117047;27;20048;-82
2022/05/07 06:10:43;;;;;;;27.17;23.00;;;12.60;99.90;;;;;;5117487;28;20189;-82
2022/05/07 06:13:09;;;;;;;29.02;22.45;;;12.60;99.90;;;;;;5117345;28;20039;-82
2022/05/07 06:15:34;;;;;;;25.63;22.40;;;12.60;99.90;;;;;;5117546;28;20036;-82
2022/05/07 06:18:00;;;;;;;23.95;21.45;;;12.70;99.90;;;;;;5115744;28;20118;-82
2022/05/07 06:20:26;;;;;;;33.78;24.17;;;12.70;99.90;;;;;;5115963;28;20039;-82
2022/05/07 06:22:52;;;;;;;23.65;21.30;;;12.70;99.90;;;;;;5116156;28;20047;-82
2022/05/07 06:28:01;;;;;;;25.67;22.88;;;12.90;99.90;;;;;;5096115;28;20040;-82
2022/05/07 06:30:27;;;;;;;28.75;22.38;;;13.10;99.90;;;;;;5095504;28;20067;-82
2022/05/07 06:32:53;;;;;;;24.20;21.60;;;13.20;99.90;;;;;;5105205;28;20036;-82
2022/05/07 06:35:19;;;;;;;26.38;23.05;;;13.30;99.90;;;;;;5116048;28;20040;-82
2022/05/07 06:37:48;;;;;;;25.52;22.77;;;13.50;99.90;;;;;;5108882;28;20036;-82
2022/05/07 06:40:14;;;;;;;30.67;23.50;;;13.60;99.90;;;;;;5094711;28;20566;-82
2022/05/07 06:42:41;;;;;;;27.23;23.15;;;13.70;99.90;;;;;;5110351;28;20043;-83
2022/05/07 06:45:07;;;;;;;26.65;23.33;;;13.90;99.90;;;;;;5116951;28;20058;-83
2022/05/07 06:47:33;;;;;;;26.15;23.17;;;14.00;99.90;;;;;;5101795;28;20036;-86
2022/05/07 06:50:00;;;;;;;26.83;22.15;;;14.10;99.90;;;;;;5096675;28;20540;-83
2022/05/07 06:52:27;;;;;;;27.08;24.27;;;14.20;99.90;;;;;;5095608;28;20109;-84
2022/05/07 06:54:53;;;;;;;26.75;23.98;;;14.30;99.90;;;;;;5094342;28;20066;-84
2022/05/07 06:57:19;;;;;;;29.50;23.65;;;14.40;99.90;;;;;;5094842;28;20491;-85
2022/05/07 06:59:45;;;;;;;26.67;23.08;;;14.50;99.90;;;;;;5096194;28;20048;-84
2022/05/07 07:02:10;;;;;;;31.58;23.67;;;14.50;99.90;;;;;;5095840;28;20498;-84
2022/05/07 07:04:36;;;;;;;30.30;24.40;;;14.50;99.90;;;;;;5094626;28;20036;-84
2022/05/07 07:07:02;;;;;;;27.92;23.85;;;14.60;99.90;;;;;;5096977;28;20071;-83
2022/05/07 07:09:28;;;;;;;34.90;26.55;;;14.60;99.90;;;;;;5094118;28;20538;-84
2022/05/07 07:11:54;;;;;;;28.95;24.77;;;14.60;99.90;;;;;;5102294;28;20122;-83
2022/05/07 07:14:19;;;;;;;29.08;24.67;;;14.80;99.90;;;;;;5114341;28;20482;-84
2022/05/07 07:16:45;;;;;;;29.38;25.73;;;14.80;99.90;;;;;;5111183;28;20114;-84
2022/05/07 07:19:11;;;;;;;30.25;25.50;;;14.90;99.90;;;;;;5094750;28;20055;-84
2022/05/07 07:21:37;;;;;;;33.63;26.45;;;14.90;99.90;;;;;;5109940;28;20052;-85
2022/05/07 07:24:03;;;;;;;34.95;27.08;;;15.00;99.90;;;;;;5108791;28;20044;-86
2022/05/07 07:26:29;;;;;;;28.55;23.95;;;15.20;99.90;;;;;;5094702;28;20410;-84
2022/05/07 07:28:56;;;;;;;28.02;24.85;;;15.30;99.90;;;;;;5095443;28;20036;-86
2022/05/07 07:31:22;;;;;;;27.45;24.00;;;15.40;99.90;;;;;;5095898;28;20047;-83
2022/05/07 07:33:47;;;;;;;29.08;25.95;;;15.40;99.90;;;;;;5094773;28;20126;-86
2022/05/07 07:36:13;;;;;;;29.70;25.55;;;15.40;99.90;;;;;;5113590;28;20032;-84
2022/05/07 07:38:39;;;;;;;30.05;26.15;;;15.50;99.90;;;;;;5116035;28;20054;-83
2022/05/07 07:41:05;;;;;;;36.13;25.90;;;15.50;99.90;;;;;;5114399;28;20032;-80
2022/05/07 07:43:31;;;;;;;32.20;25.63;;;15.50;99.90;;;;;;5114019;28;20126;-83
2022/05/07 07:48:42;;;;;;;33.33;23.42;;;15.40;99.90;;;;;;5114587;28;20052;-82
2022/05/07 07:51:08;;;;;;;30.42;24.85;;;15.40;99.90;;;;;;5132514;27;20177;-81
2022/05/07 07:53:36;;;;;;;29.58;25.05;;;15.40;99.90;;;;;;5121724;27;20062;-82
2022/05/07 07:56:03;;;;;;;42.60;26.98;;;15.30;99.90;;;;;;5115555;28;20550;-84
2022/05/07 07:58:30;;;;;;;29.15;24.08;;;15.30;99.90;;;;;;5106101;28;20261;-83
2022/05/07 08:00:56;;;;;;;28.88;24.98;;;15.30;99.90;;;;;;5094322;28;20089;-82
2022/05/07 08:03:22;;;;;;;33.67;24.48;;;15.30;99.90;;;;;;5093944;28;20047;-82
2022/05/07 08:05:51;;;;;;;32.72;24.73;;;15.30;99.90;;;;;;5093483;28;20036;-82
2022/05/07 08:13:48;;;;;;;;;;;15.50;99.90;;;;;;5094100;28;20048;-81
2022/05/07 08:16:17;;;;;;;29.67;24.80;;;15.60;99.90;;;;;;5103423;28;19973;-83
2022/05/07 08:18:43;;;;;;;29.50;22.90;;;15.70;99.90;;;;;;5114372;28;20042;-81
2022/05/07 08:21:10;;;;;;;32.72;25.80;;;15.70;99.90;;;;;;5103530;28;20048;-81
2022/05/07 08:23:37;;;;;;;31.63;26.50;;;15.70;99.90;;;;;;5094661;28;20040;-82
2022/05/07 08:26:04;;;;;;;30.23;24.50;;;15.70;99.90;;;;;;5095931;28;20135;-83
2022/05/07 08:28:33;;;;;;;28.40;24.83;;;15.70;99.90;;;;;;5093358;28;20101;-83
2022/05/07 08:31:00;;;;;;;31.20;24.52;;;15.70;99.90;;;;;;5094013;28;20192;-82
2022/05/07 08:33:27;;;;;;;34.05;24.58;;;15.70;99.90;;;;;;5093774;28;20040;-82
2022/05/07 08:35:53;;;;;;;30.95;25.65;;;15.70;99.90;;;;;;5093783;28;20044;-81
2022/05/07 08:38:19;;;;;;;28.67;24.77;;;15.80;99.90;;;;;;5093680;28;20047;-82
2022/05/07 08:40:45;;;;;;;31.73;25.30;;;15.90;99.90;;;;;;5092645;28;20047;-81
2022/05/07 08:43:11;;;;;;;29.83;25.08;;;16.10;99.90;;;;;;5094289;28;20051;-82
2022/05/07 08:45:41;;;;;;;36.45;26.35;;;16.20;99.90;;;;;;5096778;28;20099;-81
2022/05/07 08:48:08;;;;;;;28.77;25.63;;;16.30;99.90;;;;;;5109142;28;20062;-82
2022/05/07 08:50:34;;;;;;;35.05;25.85;;;16.30;99.90;;;;;;5110715;28;20541;-83
2022/05/07 08:53:00;;;;;;;29.77;25.33;;;16.40;99.90;;;;;;5092291;28;20048;-83
2022/05/07 08:55:25;;;;;;;30.75;23.90;;;16.40;99.90;;;;;;5094477;28;20139;-82
2022/05/07 08:57:52;;;;;;;33.80;25.13;;;16.40;99.90;;;;;;5094256;28;20134;-83
2022/05/07 09:00:20;;;;;;;31.75;25.58;;;16.40;99.90;;;;;;5093954;28;20118;-83
2022/05/07 09:02:49;;;;;;;30.52;25.33;;;16.40;99.90;;;;;;5094150;28;20036;-83
2022/05/07 09:05:20;;;;;;;31.35;25.35;;;16.40;99.90;;;;;;5093482;28;20517;-82
2022/05/07 09:07:58;;;;;;;34.65;27.13;;;16.40;99.90;;;;;;5093583;28;20032;-82
2022/05/07 09:10:32;;;;;;;36.80;26.77;;;16.50;99.90;;;;;;5093377;28;20564;-82
2022/05/07 09:13:14;;;;;;;32.80;25.17;;;16.60;99.90;;;;;;5092464;28;20052;-82
2022/05/07 09:15:57;;;;;;;34.03;28.25;;;16.70;99.90;;;;;;5093284;28;20044;-82
2022/05/07 09:18:27;;;;;;;34.13;28.17;;;16.80;99.90;;;;;;5092507;28;20495;-81
2022/05/07 09:21:16;;;;;;;38.67;29.38;;;16.80;99.90;;;;;;5079965;28;20073;-82
2022/05/07 09:24:03;;;;;;;46.22;30.13;;;16.80;99.90;;;;;;5092730;28;20044;-82
2022/05/07 09:26:30;;;;;;;37.42;28.88;;;16.80;99.90;;;;;;5110292;28;20430;-83
2022/05/07 09:28:56;;;;;;;39.78;28.98;;;16.80;99.90;;;;;;5093439;28;20036;-82
2022/05/07 09:31:30;;;;;;;37.88;29.33;;;16.70;99.90;;;;;;5093664;28;20073;-80
2022/05/07 09:35:47;;;;;;;42.40;31.77;;;16.70;99.90;;;;;;5092637;28;20044;-80
2022/05/07 09:36:44;;;;;;;48.13;36.22;;;16.60;99.90;;;;;;5091560;28;20048;-80
2022/05/07 09:39:17;;;;;;;49.53;37.13;;;16.50;99.90;;;;;;5095738;28;20047;-80
2022/05/07 09:41:43;;;;;;;51.22;35.85;;;16.40;99.90;;;;;;5092691;28;20091;-80
2022/05/07 09:44:12;;;;;;;54.60;39.30;;;16.40;99.90;;;;;;5092276;28;20048;-80
2022/05/07 09:46:39;;;;;;;60.63;37.03;;;16.30;99.90;;;;;;5093426;28;20487;-81
2022/05/07 09:49:06;;;;;;;48.35;35.60;;;16.40;99.90;;;;;;5093130;28;20079;-79
2022/05/07 09:51:32;;;;;;;48.55;34.30;;;16.50;99.90;;;;;;5093553;28;20119;-79
2022/05/07 09:59:28;;;;;;;45.90;35.47;;;16.60;99.90;;;;;;5092855;28;20051;-80
2022/05/07 10:01:54;;;;;;;45.22;31.48;;;16.60;99.90;;;;;;5093193;28;20036;-80
2022/05/07 10:04:40;;;;;;;47.28;34.45;;;16.50;99.90;;;;;;5092228;28;20123;-80
2022/05/07 10:08:00;;;;;;;53.28;33.78;;;16.40;99.90;;;;;;5093460;28;20131;-80
2022/05/07 10:10:29;;;;;;;43.40;31.00;;;16.40;99.90;;;;;;5064280;28;20060;-79
2022/05/07 10:12:59;;;;;;;48.10;34.95;;;16.50;99.90;;;;;;5093022;28;20097;-80
2022/05/07 10:15:26;;;;;;;47.15;34.10;;;16.60;99.90;;;;;;5093753;28;20123;-78
2022/05/07 10:18:14;;;;;;;35.53;27.27;;;16.70;99.90;;;;;;5075207;28;20066;-82
2022/05/07 10:20:43;;;;;;;39.15;29.98;;;16.80;99.90;;;;;;5112389;28;20059;-83
2022/05/07 10:23:11;;;;;;;38.50;29.17;;;16.80;99.90;;;;;;5105911;28;20036;-82
2022/05/07 10:25:38;;;;;;;39.05;27.63;;;16.90;99.90;;;;;;5100999;28;20067;-80
2022/05/07 10:28:15;;;;;;;38.00;27.30;;;17.00;99.90;;;;;;5111880;28;20044;-79
2022/05/07 10:30:56;;;;;;;34.60;26.33;;;17.10;99.90;;;;;;5112019;28;20043;-79
2022/05/07 10:33:22;;;;;;;33.28;25.65;;;17.10;99.90;;;;;;5112661;28;20040;-80
2022/05/07 10:35:53;;;;;;;40.92;28.30;;;17.00;99.90;;;;;;5111997;28;20051;-81
2022/05/07 10:38:37;;;;;;;38.63;28.23;;;17.00;99.90;;;;;;5111365;28;20073;-81
2022/05/07 10:41:15;;;;;;;39.22;29.33;;;17.10;99.90;;;;;;5095358;28;20044;-80
2022/05/07 10:43:56;;;;;;;39.15;28.92;;;17.20;99.90;;;;;;5113435;28;20086;-81
2022/05/07 10:46:22;;;;;;;41.92;29.13;;;17.20;99.90;;;;;;5115956;28;20410;-81
2022/05/07 10:48:57;;;;;;;37.65;28.08;;;17.20;99.90;;;;;;5113932;28;20075;-82
2022/05/07 10:51:33;;;;;;;;;;;17.20;99.90;;;;;;5117534;28;20432;-81
2022/05/07 10:54:02;;;;;;;43.88;28.95;;;17.10;99.90;;;;;;5112160;28;19919;-81
2022/05/07 10:56:33;;;;;;;48.75;34.05;;;17.10;99.90;;;;;;5112779;28;20110;-82
2022/05/07 10:58:59;;;;;;;52.78;37.00;;;17.00;99.90;;;;;;5116875;28;20085;-80
2022/05/07 11:01:27;;;;;;;51.97;35.97;;;16.90;99.90;;;;;;5101300;28;20052;-80
2022/05/07 11:04:04;;;;;;;54.45;35.65;;;16.80;99.90;;;;;;5096362;28;20040;-83
2022/05/07 11:06:49;;;;;;;53.65;36.15;;;16.70;99.90;;;;;;5096038;28;20056;-79
2022/05/07 11:09:21;;;;;;;52.55;36.10;;;16.60;99.90;;;;;;5094951;28;20135;-79
2022/05/07 11:11:52;;;;;;;49.10;32.50;;;16.50;99.90;;;;;;5096521;28;20049;-81
2022/05/07 11:14:26;;;;;;;52.75;35.22;;;16.50;99.90;;;;;;5095396;28;20048;-80
2022/05/07 11:16:52;;;;;;;47.25;32.80;;;16.50;99.90;;;;;;5111210;28;20079;-80
2022/05/07 11:19:28;;;;;;;44.80;31.88;;;16.60;99.90;;;;;;5116403;28;20039;-81
2022/05/07 11:21:55;;;;;;;47.20;32.17;;;16.70;99.90;;;;;;5114315;28;20058;-79
2022/05/07 11:24:21;;;;;;;43.58;30.67;;;16.70;99.90;;;;;;5116127;28;20524;-83
2022/05/07 11:26:52;;;;;;;45.95;29.67;;;16.70;99.90;;;;;;5101513;28;20455;-79
2022/05/07 11:29:19;;;;;;;40.70;29.17;;;16.70;99.90;;;;;;5102216;28;20048;-79
2022/05/07 11:32:07;;;;;;;37.13;26.00;;;16.60;99.90;;;;;;5114980;28;20493;-81
2022/05/07 11:34:37;;;;;;;39.53;28.13;;;16.70;99.90;;;;;;5111957;28;20113;-79
2022/05/07 11:37:12;;;;;;;38.95;24.88;;;16.70;99.90;;;;;;5104543;28;20039;-80
2022/05/07 11:39:52;;;;;;;34.00;23.77;;;16.80;99.90;;;;;;5114570;28;20083;-81
2022/05/07 11:42:39;;;;;;;34.72;23.63;;;16.90;99.90;;;;;;5115248;28;20130;-79
2022/05/07 11:45:30;;;;;;;31.67;22.88;;;17.10;99.90;;;;;;5114930;28;20040;-81
2022/05/07 11:48:02;;;;;;;35.55;25.00;;;17.20;99.90;;;;;;5114628;28;20054;-81
2022/05/07 11:50:31;;;;;;;27.80;19.42;;;17.20;99.90;;;;;;5112160;28;20081;-80
2022/05/07 11:53:08;;;;;;;30.55;19.20;;;17.30;99.90;;;;;;5112107;28;20047;-82
2022/05/07 11:55:34;;;;;;;27.42;20.40;;;17.20;99.90;;;;;;5113053;28;20438;-82
2022/05/07 11:57:59;;;;;;;17.58;13.07;;;17.10;99.90;;;;;;5111285;28;20062;-81
2022/05/07 12:00:27;;;;;;;19.25;12.10;;;17.10;99.90;;;;;;5106168;28;20036;-81
2022/05/07 12:03:03;;;;;;;16.63;12.00;;;17.10;99.90;;;;;;5109104;27;20071;-78
2022/05/07 12:05:58;;;;;;;20.40;11.45;;;17.00;99.90;;;;;;5111334;28;20055;-79
2022/05/07 12:08:31;;;;;;;13.75;11.25;;;17.00;99.90;;;;;;5082458;28;20052;-79
2022/05/07 12:10:58;;;;;;;19.35;11.07;;;17.10;99.90;;;;;;5094285;28;20056;-80
2022/05/07 12:13:25;;;;;;;18.60;12.95;;;17.30;99.90;;;;;;5095003;28;20044;-78
2022/05/07 12:18:37;;;;;;;17.45;12.40;;;17.30;99.90;;;;;;5130595;27;20126;-79
2022/05/07 12:21:04;;;;;;;16.58;12.38;;;17.40;99.90;;;;;;5107756;28;20394;-79
2022/05/07 12:31:44;;;;;;;14.85;9.93;;;17.10;99.90;;;;;;5093726;28;20112;-80
2022/05/07 12:34:10;;;;;;;17.48;11.35;;;16.90;99.90;;;;;;5110906;28;20055;-79
2022/05/07 12:36:36;;;;;;;15.63;10.55;;;16.80;99.90;;;;;;5112169;28;20043;-80
2022/05/07 12:39:02;;;;;;;16.60;11.70;;;16.80;99.90;;;;;;5112071;28;20055;-78
2022/05/07 12:41:28;;;;;;;17.85;12.88;;;16.80;99.90;;;;;;5114898;28;20036;-79
2022/05/07 12:43:56;;;;;;;17.90;13.05;;;16.80;99.90;;;;;;5112959;28;20048;-80
2022/05/07 12:46:24;;;;;;;19.05;14.02;;;16.90;99.90;;;;;;5113700;28;20040;-80
2022/05/07 12:48:50;;;;;;;19.35;13.43;;;17.00;99.90;;;;;;5114685;28;20058;-77
2022/05/07 12:51:16;;;;;;;20.80;13.43;;;17.10;99.90;;;;;;5114526;28;20039;-78
2022/05/07 12:53:42;;;;;;;15.32;11.15;;;17.30;99.90;;;;;;5113643;28;20139;-78
2022/05/07 12:56:08;;;;;;;15.82;10.02;;;17.30;99.90;;;;;;5114370;28;20127;-81
2022/05/07 12:58:35;;;;;;;13.65;10.18;;;17.30;99.90;;;;;;5113182;28;20108;-79
2022/05/07 13:01:01;;;;;;;15.50;10.23;;;17.20;99.90;;;;;;5113735;28;20110;-79
2022/05/07 13:03:26;;;;;;;12.07;9.40;;;17.20;99.90;;;;;;5114172;28;20454;-79
2022/05/07 13:05:52;;;;;;;11.77;8.63;;;17.30;99.90;;;;;;5114270;28;20503;-78
2022/05/07 13:08:18;;;;;;;13.15;9.02;;;17.20;99.90;;;;;;5113502;28;20079;-80
2022/05/07 13:10:44;;;;;;;12.23;8.57;;;17.20;99.90;;;;;;5112013;28;20079;-80
2022/05/07 13:13:11;;;;;;;15.63;10.30;;;17.10;99.90;;;;;;5109246;28;20051;-79
2022/05/07 13:15:37;;;;;;;16.35;11.45;;;17.00;99.90;;;;;;5110859;28;20123;-79
2022/05/07 13:18:04;;;;;;;18.83;14.63;;;16.90;99.90;;;;;;5114164;28;20122;-81
2022/05/07 13:20:30;;;;;;;17.55;13.18;;;16.90;99.90;;;;;;5113189;28;20105;-79
2022/05/07 13:22:56;;;;;;;20.73;14.38;;;16.80;99.90;;;;;;5114136;28;20048;-81
2022/05/07 13:25:23;;;;;;;15.77;12.50;;;16.90;99.90;;;;;;5114278;28;20385;-81
2022/05/07 13:27:49;;;;;;;15.68;11.77;;;16.90;99.90;;;;;;5112054;28;20126;-79
2022/05/07 13:30:21;;;;;;;18.55;12.50;;;17.00;99.90;;;;;;5114048;28;20051;-80